sensor_id;sensor_type;location;lat;lon;timestamp;temperature;humidity
15666;DHT22;20725;51.196;3.510;2022-07-10T00:02:14;13.80;86.60
15666;DHT22;20725;51.196;3.510;2022-07-10T00:04:41;13.70;87.00
15666;DHT22;20725;51.196;3.510;2022-07-10T00:07:08;13.70;87.70
15666;DHT22;20725;51.196;3.510;2022-07-10T00:09:35;13.70;88.30
15666;DHT22;20725;51.196;3.510;2022-07-10T00:12:02;13.60;88.80
15666;DHT22;20725;51.196;3.510;2022-07-10T00:14:32;13.60;88.10
15666;DHT22;20725;51.196;3.510;2022-07-10T00:16:59;13.50;87.90
15666;DHT22;20725;51.196;3.510;2022-07-10T00:19:26;13.50;89.30
15666;DHT22;20725;51.196;3.510;2022-07-10T00:21:52;13.50;89.60
15666;DHT22;20725;51.196;3.510;2022-07-10T00:24:19;13.50;89.00
15666;DHT22;20725;51.196;3.510;2022-07-10T00:26:46;13.40;87.70
15666;DHT22;20725;51.196;3.510;2022-07-10T00:29:14;13.40;88.20
15666;DHT22;20725;51.196;3.510;2022-07-10T00:31:42;13.30;87.40
15666;DHT22;20725;51.196;3.510;2022-07-10T00:34:10;13.30;87.80
15666;DHT22;20725;51.196;3.510;2022-07-10T00:36:38;13.30;89.30
15666;DHT22;20725;51.196;3.510;2022-07-10T00:39:05;13.30;89.50
15666;DHT22;20725;51.196;3.510;2022-07-10T00:41:32;13.30;89.10
15666;DHT22;20725;51.196;3.510;2022-07-10T00:44:00;13.30;88.40
15666;DHT22;20725;51.196;3.510;2022-07-10T00:46:28;13.30;88.50
15666;DHT22;20725;51.196;3.510;2022-07-10T00:48:57;13.20;87.30
15666;DHT22;20725;51.196;3.510;2022-07-10T00:51:25;13.20;87.80
15666;DHT22;20725;51.196;3.510;2022-07-10T00:53:53;13.10;87.30
15666;DHT22;20725;51.196;3.510;2022-07-10T00:56:21;13.10;86.70
15666;DHT22;20725;51.196;3.510;2022-07-10T00:58:49;13.00;87.60
15666;DHT22;20725;51.196;3.510;2022-07-10T01:01:17;13.00;87.40
15666;DHT22;20725;51.196;3.510;2022-07-10T01:03:44;12.80;87.40
15666;DHT22;20725;51.196;3.510;2022-07-10T01:06:13;12.80;87.90
15666;DHT22;20725;51.196;3.510;2022-07-10T01:08:40;12.80;88.40
15666;DHT22;20725;51.196;3.510;2022-07-10T01:11:08;12.80;88.10
15666;DHT22;20725;51.196;3.510;2022-07-10T01:13:35;12.80;88.30
15666;DHT22;20725;51.196;3.510;2022-07-10T01:16:03;12.70;89.80
15666;DHT22;20725;51.196;3.510;2022-07-10T01:18:30;12.70;90.30
15666;DHT22;20725;51.196;3.510;2022-07-10T01:20:59;12.70;90.50
15666;DHT22;20725;51.196;3.510;2022-07-10T01:23:26;12.70;90.30
15666;DHT22;20725;51.196;3.510;2022-07-10T01:25:53;12.70;90.10
15666;DHT22;20725;51.196;3.510;2022-07-10T01:28:20;12.60;90.20
15666;DHT22;20725;51.196;3.510;2022-07-10T01:30:48;12.60;89.50
15666;DHT22;20725;51.196;3.510;2022-07-10T01:33:16;12.50;89.40
15666;DHT22;20725;51.196;3.510;2022-07-10T01:35:43;12.50;89.50
15666;DHT22;20725;51.196;3.510;2022-07-10T01:38:11;12.40;90.00
15666;DHT22;20725;51.196;3.510;2022-07-10T01:40:38;12.40;90.50
15666;DHT22;20725;51.196;3.510;2022-07-10T01:43:05;12.40;90.20
15666;DHT22;20725;51.196;3.510;2022-07-10T01:45:32;12.50;90.10
15666;DHT22;20725;51.196;3.510;2022-07-10T01:47:59;12.40;90.60
15666;DHT22;20725;51.196;3.510;2022-07-10T01:50:26;12.40;90.80
15666;DHT22;20725;51.196;3.510;2022-07-10T01:52:53;12.50;90.80
15666;DHT22;20725;51.196;3.510;2022-07-10T01:55:22;12.50;90.90
15666;DHT22;20725;51.196;3.510;2022-07-10T01:57:49;12.40;90.80
15666;DHT22;20725;51.196;3.510;2022-07-10T02:00:16;12.40;90.80
15666;DHT22;20725;51.196;3.510;2022-07-10T02:02:43;12.40;90.50
15666;DHT22;20725;51.196;3.510;2022-07-10T02:05:31;12.30;90.30
15666;DHT22;20725;51.196;3.510;2022-07-10T02:07:57;12.30;90.70
15666;DHT22;20725;51.196;3.510;2022-07-10T02:10:26;12.30;90.90
15666;DHT22;20725;51.196;3.510;2022-07-10T02:12:53;12.20;90.80
15666;DHT22;20725;51.196;3.510;2022-07-10T02:15:21;12.20;90.80
15666;DHT22;20725;51.196;3.510;2022-07-10T02:17:48;12.20;90.40
15666;DHT22;20725;51.196;3.510;2022-07-10T02:20:15;12.30;90.50
15666;DHT22;20725;51.196;3.510;2022-07-10T02:22:42;12.20;90.60
15666;DHT22;20725;51.196;3.510;2022-07-10T02:25:09;12.10;90.60
15666;DHT22;20725;51.196;3.510;2022-07-10T02:27:38;12.10;90.60
15666;DHT22;20725;51.196;3.510;2022-07-10T02:30:06;12.10;90.60
15666;DHT22;20725;51.196;3.510;2022-07-10T02:32:33;12.10;90.50
15666;DHT22;20725;51.196;3.510;2022-07-10T02:35:00;12.10;90.20
15666;DHT22;20725;51.196;3.510;2022-07-10T02:37:27;12.10;90.60
15666;DHT22;20725;51.196;3.510;2022-07-10T02:39:54;12.00;91.00
15666;DHT22;20725;51.196;3.510;2022-07-10T02:42:21;12.00;91.20
15666;DHT22;20725;51.196;3.510;2022-07-10T02:44:49;12.00;91.40
15666;DHT22;20725;51.196;3.510;2022-07-10T02:47:16;12.00;91.70
15666;DHT22;20725;51.196;3.510;2022-07-10T02:49:43;12.00;91.10
15666;DHT22;20725;51.196;3.510;2022-07-10T02:52:10;11.90;90.90
15666;DHT22;20725;51.196;3.510;2022-07-10T02:54:38;11.90;90.70
15666;DHT22;20725;51.196;3.510;2022-07-10T02:57:05;11.90;90.80
15666;DHT22;20725;51.196;3.510;2022-07-10T02:59:32;11.90;90.80
15666;DHT22;20725;51.196;3.510;2022-07-10T03:02:00;11.80;91.10
15666;DHT22;20725;51.196;3.510;2022-07-10T03:04:27;11.80;91.30
15666;DHT22;20725;51.196;3.510;2022-07-10T03:06:54;11.80;90.90
15666;DHT22;20725;51.196;3.510;2022-07-10T03:09:21;11.80;91.10
15666;DHT22;20725;51.196;3.510;2022-07-10T03:11:48;11.80;91.10
15666;DHT22;20725;51.196;3.510;2022-07-10T03:14:15;11.80;91.10
15666;DHT22;20725;51.196;3.510;2022-07-10T03:16:42;11.80;93.50
15666;DHT22;20725;51.196;3.510;2022-07-10T03:19:10;11.80;94.20
15666;DHT22;20725;51.196;3.510;2022-07-10T03:21:38;11.90;94.00
15666;DHT22;20725;51.196;3.510;2022-07-10T03:24:05;11.90;94.50
15666;DHT22;20725;51.196;3.510;2022-07-10T03:26:32;11.90;94.40
15666;DHT22;20725;51.196;3.510;2022-07-10T03:28:59;11.90;94.30
15666;DHT22;20725;51.196;3.510;2022-07-10T03:31:26;11.90;94.20
15666;DHT22;20725;51.196;3.510;2022-07-10T03:33:53;12.00;94.20
15666;DHT22;20725;51.196;3.510;2022-07-10T03:36:22;12.00;94.10
15666;DHT22;20725;51.196;3.510;2022-07-10T03:38:49;12.00;93.80
15666;DHT22;20725;51.196;3.510;2022-07-10T03:41:16;12.00;93.80
15666;DHT22;20725;51.196;3.510;2022-07-10T03:43:43;12.00;93.60
15666;DHT22;20725;51.196;3.510;2022-07-10T03:46:10;12.00;93.40
15666;DHT22;20725;51.196;3.510;2022-07-10T03:48:37;12.00;93.30
15666;DHT22;20725;51.196;3.510;2022-07-10T03:51:04;12.00;92.80
15666;DHT22;20725;51.196;3.510;2022-07-10T03:53:32;12.00;92.50
15666;DHT22;20725;51.196;3.510;2022-07-10T03:55:59;11.90;92.10
15666;DHT22;20725;51.196;3.510;2022-07-10T03:58:27;11.90;91.80
15666;DHT22;20725;51.196;3.510;2022-07-10T04:00:53;12.00;92.00
15666;DHT22;20725;51.196;3.510;2022-07-10T04:03:20;11.80;92.20
15666;DHT22;20725;51.196;3.510;2022-07-10T04:05:47;11.90;92.30
15666;DHT22;20725;51.196;3.510;2022-07-10T04:08:14;11.90;92.10
15666;DHT22;20725;51.196;3.510;2022-07-10T04:10:42;11.90;92.20
15666;DHT22;20725;51.196;3.510;2022-07-10T04:13:09;11.90;92.40
15666;DHT22;20725;51.196;3.510;2022-07-10T04:15:36;12.00;92.30
15666;DHT22;20725;51.196;3.510;2022-07-10T04:18:03;12.00;92.10
15666;DHT22;20725;51.196;3.510;2022-07-10T04:20:30;12.00;91.90
15666;DHT22;20725;51.196;3.510;2022-07-10T04:22:57;12.10;91.90
15666;DHT22;20725;51.196;3.510;2022-07-10T04:25:24;12.20;92.00
15666;DHT22;20725;51.196;3.510;2022-07-10T04:27:53;12.20;91.90
15666;DHT22;20725;51.196;3.510;2022-07-10T04:30:20;12.30;92.10
15666;DHT22;20725;51.196;3.510;2022-07-10T04:32:47;12.30;92.20
15666;DHT22;20725;51.196;3.510;2022-07-10T04:35:14;12.40;92.20
15666;DHT22;20725;51.196;3.510;2022-07-10T04:37:41;12.50;92.10
15666;DHT22;20725;51.196;3.510;2022-07-10T04:40:09;12.60;92.00
15666;DHT22;20725;51.196;3.510;2022-07-10T04:42:36;12.70;91.50
15666;DHT22;20725;51.196;3.510;2022-07-10T04:45:06;12.80;91.00
15666;DHT22;20725;51.196;3.510;2022-07-10T04:47:33;12.90;90.90
15666;DHT22;20725;51.196;3.510;2022-07-10T04:50:00;13.00;91.00
15666;DHT22;20725;51.196;3.510;2022-07-10T04:52:27;13.20;91.10
15666;DHT22;20725;51.196;3.510;2022-07-10T04:54:54;13.30;91.00
15666;DHT22;20725;51.196;3.510;2022-07-10T04:57:21;13.60;90.90
15666;DHT22;20725;51.196;3.510;2022-07-10T04:59:48;13.80;90.90
15666;DHT22;20725;51.196;3.510;2022-07-10T05:02:16;14.00;90.70
15666;DHT22;20725;51.196;3.510;2022-07-10T05:04:43;14.20;90.70
15666;DHT22;20725;51.196;3.510;2022-07-10T05:07:10;14.30;90.50
15666;DHT22;20725;51.196;3.510;2022-07-10T05:09:37;14.50;90.40
15666;DHT22;20725;51.196;3.510;2022-07-10T05:12:05;14.70;90.20
15666;DHT22;20725;51.196;3.510;2022-07-10T05:14:33;14.80;90.40
15666;DHT22;20725;51.196;3.510;2022-07-10T05:17:00;14.90;90.30
15666;DHT22;20725;51.196;3.510;2022-07-10T05:19:28;15.00;90.50
15666;DHT22;20725;51.196;3.510;2022-07-10T05:21:55;15.20;90.40
15666;DHT22;20725;51.196;3.510;2022-07-10T05:24:22;15.30;90.20
15666;DHT22;20725;51.196;3.510;2022-07-10T05:26:49;15.40;90.10
15666;DHT22;20725;51.196;3.510;2022-07-10T05:29:16;15.60;89.70
15666;DHT22;20725;51.196;3.510;2022-07-10T05:31:43;15.80;88.30
15666;DHT22;20725;51.196;3.510;2022-07-10T05:34:11;16.00;87.50
15666;DHT22;20725;51.196;3.510;2022-07-10T05:36:39;16.20;86.40
15666;DHT22;20725;51.196;3.510;2022-07-10T05:39:06;16.40;85.60
15666;DHT22;20725;51.196;3.510;2022-07-10T05:41:33;16.50;85.00
15666;DHT22;20725;51.196;3.510;2022-07-10T05:44:00;16.70;84.30
15666;DHT22;20725;51.196;3.510;2022-07-10T05:46:27;16.90;83.50
15666;DHT22;20725;51.196;3.510;2022-07-10T05:48:55;17.10;82.50
15666;DHT22;20725;51.196;3.510;2022-07-10T05:51:21;17.30;80.90
15666;DHT22;20725;51.196;3.510;2022-07-10T05:53:50;17.40;80.20
15666;DHT22;20725;51.196;3.510;2022-07-10T05:56:17;17.60;79.30
15666;DHT22;20725;51.196;3.510;2022-07-10T05:58:44;17.80;78.20
15666;DHT22;20725;51.196;3.510;2022-07-10T06:01:11;18.00;77.70
15666;DHT22;20725;51.196;3.510;2022-07-10T06:03:38;18.20;77.10
15666;DHT22;20725;51.196;3.510;2022-07-10T06:06:05;18.40;77.20
15666;DHT22;20725;51.196;3.510;2022-07-10T06:08:32;18.60;77.10
15666;DHT22;20725;51.196;3.510;2022-07-10T06:11:00;18.80;76.50
15666;DHT22;20725;51.196;3.510;2022-07-10T06:13:27;19.10;74.80
15666;DHT22;20725;51.196;3.510;2022-07-10T06:15:54;19.50;74.60
15666;DHT22;20725;51.196;3.510;2022-07-10T06:18:21;19.90;73.50
15666;DHT22;20725;51.196;3.510;2022-07-10T06:20:48;20.10;71.60
15666;DHT22;20725;51.196;3.510;2022-07-10T06:23:15;20.60;71.00
15666;DHT22;20725;51.196;3.510;2022-07-10T06:25:42;21.00;70.00
15666;DHT22;20725;51.196;3.510;2022-07-10T06:28:10;21.50;67.40
15666;DHT22;20725;51.196;3.510;2022-07-10T06:30:37;22.00;66.10
15666;DHT22;20725;51.196;3.510;2022-07-10T06:33:04;22.60;63.20
15666;DHT22;20725;51.196;3.510;2022-07-10T06:35:31;22.90;61.80
15666;DHT22;20725;51.196;3.510;2022-07-10T06:37:58;23.30;59.50
15666;DHT22;20725;51.196;3.510;2022-07-10T06:40:25;23.50;57.50
15666;DHT22;20725;51.196;3.510;2022-07-10T06:42:52;23.80;56.40
15666;DHT22;20725;51.196;3.510;2022-07-10T06:45:21;24.20;55.70
15666;DHT22;20725;51.196;3.510;2022-07-10T06:47:48;24.70;55.30
15666;DHT22;20725;51.196;3.510;2022-07-10T06:50:25;25.10;53.30
15666;DHT22;20725;51.196;3.510;2022-07-10T06:52:52;25.30;52.70
15666;DHT22;20725;51.196;3.510;2022-07-10T06:55:20;25.70;52.20
15666;DHT22;20725;51.196;3.510;2022-07-10T06:57:47;26.20;49.30
15666;DHT22;20725;51.196;3.510;2022-07-10T07:00:14;26.30;48.10
15666;DHT22;20725;51.196;3.510;2022-07-10T07:02:44;26.50;47.90
15666;DHT22;20725;51.196;3.510;2022-07-10T07:05:10;26.40;47.20
15666;DHT22;20725;51.196;3.510;2022-07-10T07:07:38;26.50;48.10
15666;DHT22;20725;51.196;3.510;2022-07-10T07:10:06;26.80;47.30
15666;DHT22;20725;51.196;3.510;2022-07-10T07:12:33;27.10;46.00
15666;DHT22;20725;51.196;3.510;2022-07-10T07:15:00;27.60;45.00
15666;DHT22;20725;51.196;3.510;2022-07-10T07:17:27;28.00;44.00
15666;DHT22;20725;51.196;3.510;2022-07-10T07:20:03;28.10;43.70
15666;DHT22;20725;51.196;3.510;2022-07-10T07:22:47;28.50;44.00
15666;DHT22;20725;51.196;3.510;2022-07-10T07:25:32;28.90;42.10
15666;DHT22;20725;51.196;3.510;2022-07-10T07:27:59;28.90;42.00
15666;DHT22;20725;51.196;3.510;2022-07-10T07:30:26;29.40;41.10
15666;DHT22;20725;51.196;3.510;2022-07-10T07:32:52;29.60;39.90
15666;DHT22;20725;51.196;3.510;2022-07-10T07:35:21;30.10;39.40
15666;DHT22;20725;51.196;3.510;2022-07-10T07:37:49;30.50;38.50
15666;DHT22;20725;51.196;3.510;2022-07-10T07:40:19;30.50;37.80
15666;DHT22;20725;51.196;3.510;2022-07-10T07:42:48;30.90;37.50
15666;DHT22;20725;51.196;3.510;2022-07-10T07:45:19;31.00;37.20
15666;DHT22;20725;51.196;3.510;2022-07-10T07:47:48;30.80;38.00
15666;DHT22;20725;51.196;3.510;2022-07-10T07:50:17;31.20;36.10
15666;DHT22;20725;51.196;3.510;2022-07-10T07:52:46;31.50;37.20
15666;DHT22;20725;51.196;3.510;2022-07-10T07:55:14;31.90;34.80
15666;DHT22;20725;51.196;3.510;2022-07-10T07:57:41;32.20;34.90
15666;DHT22;20725;51.196;3.510;2022-07-10T08:00:09;32.10;34.10
15666;DHT22;20725;51.196;3.510;2022-07-10T08:02:37;32.60;34.50
15666;DHT22;20725;51.196;3.510;2022-07-10T08:05:05;32.70;33.20
15666;DHT22;20725;51.196;3.510;2022-07-10T08:07:34;32.50;33.60
15666;DHT22;20725;51.196;3.510;2022-07-10T08:10:03;33.50;32.50
15666;DHT22;20725;51.196;3.510;2022-07-10T08:12:30;34.50;32.60
15666;DHT22;20725;51.196;3.510;2022-07-10T08:14:57;35.40;29.80
15666;DHT22;20725;51.196;3.510;2022-07-10T08:17:24;34.50;29.80
15666;DHT22;20725;51.196;3.510;2022-07-10T08:19:51;34.60;30.40
15666;DHT22;20725;51.196;3.510;2022-07-10T08:22:18;35.20;29.70
15666;DHT22;20725;51.196;3.510;2022-07-10T08:24:45;35.40;29.20
15666;DHT22;20725;51.196;3.510;2022-07-10T08:27:14;35.40;28.70
15666;DHT22;20725;51.196;3.510;2022-07-10T08:29:41;34.80;28.60
15666;DHT22;20725;51.196;3.510;2022-07-10T08:32:08;34.60;28.60
15666;DHT22;20725;51.196;3.510;2022-07-10T08:34:36;34.00;29.00
15666;DHT22;20725;51.196;3.510;2022-07-10T08:37:03;33.50;29.30
15666;DHT22;20725;51.196;3.510;2022-07-10T08:39:30;33.60;29.10
15666;DHT22;20725;51.196;3.510;2022-07-10T08:41:58;33.40;28.60
15666;DHT22;20725;51.196;3.510;2022-07-10T08:44:27;33.10;29.10
15666;DHT22;20725;51.196;3.510;2022-07-10T08:46:54;33.20;29.80
15666;DHT22;20725;51.196;3.510;2022-07-10T08:49:27;33.60;29.80
15666;DHT22;20725;51.196;3.510;2022-07-10T08:51:58;34.10;29.50
15666;DHT22;20725;51.196;3.510;2022-07-10T08:54:29;33.90;29.00
15666;DHT22;20725;51.196;3.510;2022-07-10T08:56:57;33.80;29.40
15666;DHT22;20725;51.196;3.510;2022-07-10T08:59:24;34.20;28.90
15666;DHT22;20725;51.196;3.510;2022-07-10T09:01:53;34.40;29.20
15666;DHT22;20725;51.196;3.510;2022-07-10T09:04:22;34.80;28.50
15666;DHT22;20725;51.196;3.510;2022-07-10T09:06:50;34.40;28.60
15666;DHT22;20725;51.196;3.510;2022-07-10T09:09:18;34.70;29.10
15666;DHT22;20725;51.196;3.510;2022-07-10T09:11:45;34.90;28.10
15666;DHT22;20725;51.196;3.510;2022-07-10T09:14:15;35.00;28.00
15666;DHT22;20725;51.196;3.510;2022-07-10T09:16:43;35.40;28.60
15666;DHT22;20725;51.196;3.510;2022-07-10T09:19:20;35.10;28.20
15666;DHT22;20725;51.196;3.510;2022-07-10T09:21:48;35.60;29.40
15666;DHT22;20725;51.196;3.510;2022-07-10T09:24:16;35.90;28.10
15666;DHT22;20725;51.196;3.510;2022-07-10T09:26:57;35.70;27.50
15666;DHT22;20725;51.196;3.510;2022-07-10T09:29:25;35.90;28.00
15666;DHT22;20725;51.196;3.510;2022-07-10T09:31:53;35.90;27.20
15666;DHT22;20725;51.196;3.510;2022-07-10T09:34:40;35.60;27.40
15666;DHT22;20725;51.196;3.510;2022-07-10T09:37:24;35.40;28.00
15666;DHT22;20725;51.196;3.510;2022-07-10T09:39:57;36.10;27.90
15666;DHT22;20725;51.196;3.510;2022-07-10T09:42:29;36.50;27.30
15666;DHT22;20725;51.196;3.510;2022-07-10T09:45:17;36.60;27.20
15666;DHT22;20725;51.196;3.510;2022-07-10T09:47:45;37.00;26.60
15666;DHT22;20725;51.196;3.510;2022-07-10T09:50:26;37.00;26.10
15666;DHT22;20725;51.196;3.510;2022-07-10T09:52:55;37.90;25.70
15666;DHT22;20725;51.196;3.510;2022-07-10T09:55:23;38.10;25.20
15666;DHT22;20725;51.196;3.510;2022-07-10T09:57:56;37.60;24.50
15666;DHT22;20725;51.196;3.510;2022-07-10T10:00:24;37.50;26.20
15666;DHT22;20725;51.196;3.510;2022-07-10T10:02:55;37.50;26.50
15666;DHT22;20725;51.196;3.510;2022-07-10T10:05:36;37.80;25.30
15666;DHT22;20725;51.196;3.510;2022-07-10T10:08:12;37.30;24.70
15666;DHT22;20725;51.196;3.510;2022-07-10T10:10:45;37.50;24.40
15666;DHT22;20725;51.196;3.510;2022-07-10T10:13:16;37.30;25.60
15666;DHT22;20725;51.196;3.510;2022-07-10T10:15:46;38.10;25.50
15666;DHT22;20725;51.196;3.510;2022-07-10T10:18:16;38.80;25.80
15666;DHT22;20725;51.196;3.510;2022-07-10T10:20:46;39.40;25.00
15666;DHT22;20725;51.196;3.510;2022-07-10T10:23:14;39.50;23.80
15666;DHT22;20725;51.196;3.510;2022-07-10T10:25:43;39.70;24.00
15666;DHT22;20725;51.196;3.510;2022-07-10T10:28:11;39.80;24.40
15666;DHT22;20725;51.196;3.510;2022-07-10T10:30:40;40.00;24.30
15666;DHT22;20725;51.196;3.510;2022-07-10T10:33:43;39.90;24.00
15666;DHT22;20725;51.196;3.510;2022-07-10T10:36:15;39.60;22.60
15666;DHT22;20725;51.196;3.510;2022-07-10T10:39:11;39.00;23.20
15666;DHT22;20725;51.196;3.510;2022-07-10T10:41:41;38.90;24.10
15666;DHT22;20725;51.196;3.510;2022-07-10T10:44:28;39.00;24.40
15666;DHT22;20725;51.196;3.510;2022-07-10T10:47:07;39.20;24.20
15666;DHT22;20725;51.196;3.510;2022-07-10T10:50:01;39.30;24.00
15666;DHT22;20725;51.196;3.510;2022-07-10T10:52:28;40.00;23.70
15666;DHT22;20725;51.196;3.510;2022-07-10T10:55:08;40.10;22.80
15666;DHT22;20725;51.196;3.510;2022-07-10T10:57:41;40.30;22.10
15666;DHT22;20725;51.196;3.510;2022-07-10T11:00:33;40.60;22.70
15666;DHT22;20725;51.196;3.510;2022-07-10T11:03:21;41.20;22.50
15666;DHT22;20725;51.196;3.510;2022-07-10T11:05:50;41.50;21.30
15666;DHT22;20725;51.196;3.510;2022-07-10T11:08:40;41.70;22.20
15666;DHT22;20725;51.196;3.510;2022-07-10T11:11:38;42.20;20.20
15666;DHT22;20725;51.196;3.510;2022-07-10T11:14:10;42.50;21.20
15666;DHT22;20725;51.196;3.510;2022-07-10T11:16:45;43.00;21.20
15666;DHT22;20725;51.196;3.510;2022-07-10T11:19:19;43.40;21.30
15666;DHT22;20725;51.196;3.510;2022-07-10T11:21:52;43.80;21.00
15666;DHT22;20725;51.196;3.510;2022-07-10T11:24:42;43.70;20.00
15666;DHT22;20725;51.196;3.510;2022-07-10T11:27:28;43.70;20.40
15666;DHT22;20725;51.196;3.510;2022-07-10T11:29:59;44.00;20.40
15666;DHT22;20725;51.196;3.510;2022-07-10T11:32:45;44.60;20.20
15666;DHT22;20725;51.196;3.510;2022-07-10T11:35:14;44.90;19.30
15666;DHT22;20725;51.196;3.510;2022-07-10T11:37:49;45.30;19.40
15666;DHT22;20725;51.196;3.510;2022-07-10T11:40:18;45.40;18.30
15666;DHT22;20725;51.196;3.510;2022-07-10T11:42:51;45.40;18.20
15666;DHT22;20725;51.196;3.510;2022-07-10T11:45:26;45.70;18.40
15666;DHT22;20725;51.196;3.510;2022-07-10T11:47:54;46.00;18.30
15666;DHT22;20725;51.196;3.510;2022-07-10T11:50:22;46.30;17.70
15666;DHT22;20725;51.196;3.510;2022-07-10T11:52:49;46.40;17.80
15666;DHT22;20725;51.196;3.510;2022-07-10T11:55:18;46.30;17.70
15666;DHT22;20725;51.196;3.510;2022-07-10T11:57:46;46.50;17.40
15666;DHT22;20725;51.196;3.510;2022-07-10T12:00:23;46.50;17.90
15666;DHT22;20725;51.196;3.510;2022-07-10T12:02:52;46.70;17.90
15666;DHT22;20725;51.196;3.510;2022-07-10T12:05:32;46.50;17.60
15666;DHT22;20725;51.196;3.510;2022-07-10T12:08:00;46.40;17.00
15666;DHT22;20725;51.196;3.510;2022-07-10T12:10:27;46.30;17.80
15666;DHT22;20725;51.196;3.510;2022-07-10T12:13:02;46.40;17.10
15666;DHT22;20725;51.196;3.510;2022-07-10T12:15:35;46.30;17.00
15666;DHT22;20725;51.196;3.510;2022-07-10T12:18:03;46.40;17.90
15666;DHT22;20725;51.196;3.510;2022-07-10T12:20:31;46.60;17.50
15666;DHT22;20725;51.196;3.510;2022-07-10T12:22:58;46.40;17.10
15666;DHT22;20725;51.196;3.510;2022-07-10T12:25:26;46.50;17.70
15666;DHT22;20725;51.196;3.510;2022-07-10T12:27:56;46.70;17.50
15666;DHT22;20725;51.196;3.510;2022-07-10T12:30:40;47.30;17.60
15666;DHT22;20725;51.196;3.510;2022-07-10T12:33:08;47.40;17.10
15666;DHT22;20725;51.196;3.510;2022-07-10T12:35:50;47.00;17.20
15666;DHT22;20725;51.196;3.510;2022-07-10T12:38:22;46.80;16.70
15666;DHT22;20725;51.196;3.510;2022-07-10T12:40:49;46.50;16.70
15666;DHT22;20725;51.196;3.510;2022-07-10T12:43:27;46.30;17.30
15666;DHT22;20725;51.196;3.510;2022-07-10T12:46:13;46.00;16.80
15666;DHT22;20725;51.196;3.510;2022-07-10T12:48:41;46.00;18.10
15666;DHT22;20725;51.196;3.510;2022-07-10T12:51:23;46.60;17.50
15666;DHT22;20725;51.196;3.510;2022-07-10T12:53:51;46.90;17.00
15666;DHT22;20725;51.196;3.510;2022-07-10T12:56:32;47.00;17.30
15666;DHT22;20725;51.196;3.510;2022-07-10T12:59:00;47.20;17.10
15666;DHT22;20725;51.196;3.510;2022-07-10T13:01:38;47.40;16.80
15666;DHT22;20725;51.196;3.510;2022-07-10T13:04:06;47.30;16.40
15666;DHT22;20725;51.196;3.510;2022-07-10T13:06:34;47.20;16.50
15666;DHT22;20725;51.196;3.510;2022-07-10T13:09:02;47.30;16.50
15666;DHT22;20725;51.196;3.510;2022-07-10T13:11:29;47.20;16.60
15666;DHT22;20725;51.196;3.510;2022-07-10T13:13:56;47.30;16.40
15666;DHT22;20725;51.196;3.510;2022-07-10T13:16:24;47.00;16.20
15666;DHT22;20725;51.196;3.510;2022-07-10T13:18:53;46.80;16.10
15666;DHT22;20725;51.196;3.510;2022-07-10T13:21:20;46.50;16.20
15666;DHT22;20725;51.196;3.510;2022-07-10T13:23:47;46.40;16.70
15666;DHT22;20725;51.196;3.510;2022-07-10T13:26:14;46.00;16.40
15666;DHT22;20725;51.196;3.510;2022-07-10T13:28:42;46.00;16.10
15666;DHT22;20725;51.196;3.510;2022-07-10T13:31:09;45.50;16.30
15666;DHT22;20725;51.196;3.510;2022-07-10T13:33:38;45.40;16.40
15666;DHT22;20725;51.196;3.510;2022-07-10T13:36:07;45.40;16.80
15666;DHT22;20725;51.196;3.510;2022-07-10T13:38:34;45.80;16.60
15666;DHT22;20725;51.196;3.510;2022-07-10T13:41:02;45.80;16.30
15666;DHT22;20725;51.196;3.510;2022-07-10T13:43:29;45.70;16.80
15666;DHT22;20725;51.196;3.510;2022-07-10T13:45:57;45.80;16.80
15666;DHT22;20725;51.196;3.510;2022-07-10T13:48:24;46.10;16.30
15666;DHT22;20725;51.196;3.510;2022-07-10T13:50:52;46.00;16.10
15666;DHT22;20725;51.196;3.510;2022-07-10T13:53:21;46.20;16.50
15666;DHT22;20725;51.196;3.510;2022-07-10T13:55:48;46.00;15.90
15666;DHT22;20725;51.196;3.510;2022-07-10T13:58:15;45.70;16.20
15666;DHT22;20725;51.196;3.510;2022-07-10T14:00:43;45.40;16.00
15666;DHT22;20725;51.196;3.510;2022-07-10T14:03:10;45.20;16.40
15666;DHT22;20725;51.196;3.510;2022-07-10T14:05:37;44.90;16.50
15666;DHT22;20725;51.196;3.510;2022-07-10T14:08:04;44.90;17.40
15666;DHT22;20725;51.196;3.510;2022-07-10T14:10:32;45.00;16.60
15666;DHT22;20725;51.196;3.510;2022-07-10T14:12:59;45.10;16.30
15666;DHT22;20725;51.196;3.510;2022-07-10T14:15:26;45.00;16.40
15666;DHT22;20725;51.196;3.510;2022-07-10T14:17:53;44.70;16.30
15666;DHT22;20725;51.196;3.510;2022-07-10T14:20:20;44.10;16.60
15666;DHT22;20725;51.196;3.510;2022-07-10T14:22:47;43.80;16.70
15666;DHT22;20725;51.196;3.510;2022-07-10T14:25:14;44.00;16.80
15666;DHT22;20725;51.196;3.510;2022-07-10T14:27:44;44.00;16.90
15666;DHT22;20725;51.196;3.510;2022-07-10T14:30:11;44.20;16.80
15666;DHT22;20725;51.196;3.510;2022-07-10T14:32:38;44.10;17.00
15666;DHT22;20725;51.196;3.510;2022-07-10T14:35:06;44.10;16.70
15666;DHT22;20725;51.196;3.510;2022-07-10T14:37:34;44.50;17.10
15666;DHT22;20725;51.196;3.510;2022-07-10T14:40:01;45.00;16.60
15666;DHT22;20725;51.196;3.510;2022-07-10T14:42:28;44.50;16.40
15666;DHT22;20725;51.196;3.510;2022-07-10T14:44:56;43.90;16.80
15666;DHT22;20725;51.196;3.510;2022-07-10T14:47:23;43.70;16.90
15666;DHT22;20725;51.196;3.510;2022-07-10T14:49:50;43.20;17.20
15666;DHT22;20725;51.196;3.510;2022-07-10T14:52:17;42.50;17.70
15666;DHT22;20725;51.196;3.510;2022-07-10T14:54:47;41.00;18.40
15666;DHT22;20725;51.196;3.510;2022-07-10T14:57:16;39.40;19.50
15666;DHT22;20725;51.196;3.510;2022-07-10T14:59:43;38.10;20.20
15666;DHT22;20725;51.196;3.510;2022-07-10T15:02:11;37.10;21.90
15666;DHT22;20725;51.196;3.510;2022-07-10T15:04:38;36.50;22.50
15666;DHT22;20725;51.196;3.510;2022-07-10T15:07:05;35.60;23.40
15666;DHT22;20725;51.196;3.510;2022-07-10T15:09:32;34.90;23.80
15666;DHT22;20725;51.196;3.510;2022-07-10T15:11:59;34.00;24.70
15666;DHT22;20725;51.196;3.510;2022-07-10T15:14:28;33.00;26.30
15666;DHT22;20725;51.196;3.510;2022-07-10T15:16:55;32.70;26.30
15666;DHT22;20725;51.196;3.510;2022-07-10T15:19:24;32.50;27.40
15666;DHT22;20725;51.196;3.510;2022-07-10T15:21:51;32.50;27.00
15666;DHT22;20725;51.196;3.510;2022-07-10T15:24:18;32.00;27.50
15666;DHT22;20725;51.196;3.510;2022-07-10T15:26:45;31.90;27.40
15666;DHT22;20725;51.196;3.510;2022-07-10T15:29:12;32.00;28.00
15666;DHT22;20725;51.196;3.510;2022-07-10T15:31:39;31.90;27.70
15666;DHT22;20725;51.196;3.510;2022-07-10T15:34:09;31.90;28.40
15666;DHT22;20725;51.196;3.510;2022-07-10T15:36:39;31.60;28.30
15666;DHT22;20725;51.196;3.510;2022-07-10T15:39:13;31.30;28.90
15666;DHT22;20725;51.196;3.510;2022-07-10T15:41:40;31.10;29.50
15666;DHT22;20725;51.196;3.510;2022-07-10T15:44:11;30.70;29.60